sensor_id;sensor_type;location;lat;lon;timestamp;pressure;altitude;pressure_sealevel;temperature
43802;BMP280;29429;51.074;13.764;2023-02-14T00:02:23;102086.63;;;7.92
43802;BMP280;29429;51.074;13.764;2023-02-14T00:04:50;102085.09;;;7.90
43802;BMP280;29429;51.074;13.764;2023-02-14T00:07:17;102088.00;;;7.87
43802;BMP280;29429;51.074;13.764;2023-02-14T00:09:44;102077.16;;;7.79
43802;BMP280;29429;51.074;13.764;2023-02-14T00:12:11;102092.84;;;7.82
43802;BMP280;29429;51.074;13.764;2023-02-14T00:14:38;102080.28;;;7.84
43802;BMP280;29429;51.074;13.764;2023-02-14T00:17:23;102081.97;;;7.85
43802;BMP280;29429;51.074;13.764;2023-02-14T00:19:50;102077.31;;;7.77
43802;BMP280;29429;51.074;13.764;2023-02-14T00:22:17;102086.25;;;7.76
43802;BMP280;29429;51.074;13.764;2023-02-14T00:24:44;102091.56;;;7.76
43802;BMP280;29429;51.074;13.764;2023-02-14T00:27:12;102083.00;;;7.73
43802;BMP280;29429;51.074;13.764;2023-02-14T00:29:39;102080.34;;;7.73
43802;BMP280;29429;51.074;13.764;2023-02-14T00:32:06;102075.75;;;7.75
43802;BMP280;29429;51.074;13.764;2023-02-14T00:34:34;102078.81;;;7.70
43802;BMP280;29429;51.074;13.764;2023-02-14T00:37:03;102082.41;;;7.69
43802;BMP280;29429;51.074;13.764;2023-02-14T00:39:30;102084.22;;;7.69
43802;BMP280;29429;51.074;13.764;2023-02-14T00:41:57;102089.16;;;7.73
43802;BMP280;29429;51.074;13.764;2023-02-14T00:44:24;102078.91;;;7.69
43802;BMP280;29429;51.074;13.764;2023-02-14T00:46:51;102083.28;;;7.70
43802;BMP280;29429;51.074;13.764;2023-02-14T00:49:18;102080.47;;;7.71
43802;BMP280;29429;51.074;13.764;2023-02-14T00:51:45;102069.84;;;7.71
43802;BMP280;29429;51.074;13.764;2023-02-14T00:54:12;102079.38;;;7.74
43802;BMP280;29429;51.074;13.764;2023-02-14T00:56:39;102075.50;;;7.78
43802;BMP280;29429;51.074;13.764;2023-02-14T00:59:08;102075.34;;;7.79
43802;BMP280;29429;51.074;13.764;2023-02-14T01:01:35;102056.56;;;7.71
43802;BMP280;29429;51.074;13.764;2023-02-14T01:04:04;102062.19;;;7.57
43802;BMP280;29429;51.074;13.764;2023-02-14T01:06:31;102060.91;;;7.52
43802;BMP280;29429;51.074;13.764;2023-02-14T01:09:01;102071.59;;;7.61
43802;BMP280;29429;51.074;13.764;2023-02-14T01:11:31;102069.78;;;7.62
43802;BMP280;29429;51.074;13.764;2023-02-14T01:13:59;102076.25;;;7.69
43802;BMP280;29429;51.074;13.764;2023-02-14T01:16:28;102065.31;;;7.62
43802;BMP280;29429;51.074;13.764;2023-02-14T01:18:59;102072.66;;;7.70
43802;BMP280;29429;51.074;13.764;2023-02-14T01:21:32;102069.00;;;7.71
43802;BMP280;29429;51.074;13.764;2023-02-14T01:24:04;102060.47;;;7.67
43802;BMP280;29429;51.074;13.764;2023-02-14T01:26:33;102050.53;;;7.69
43802;BMP280;29429;51.074;13.764;2023-02-14T01:29:02;102052.50;;;7.67
43802;BMP280;29429;51.074;13.764;2023-02-14T01:31:33;102058.38;;;7.71
43802;BMP280;29429;51.074;13.764;2023-02-14T01:34:01;102049.84;;;7.67
43802;BMP280;29429;51.074;13.764;2023-02-14T01:36:36;102046.09;;;7.70
43802;BMP280;29429;51.074;13.764;2023-02-14T01:39:06;102060.97;;;7.61
43802;BMP280;29429;51.074;13.764;2023-02-14T01:41:37;102050.75;;;7.57
43802;BMP280;29429;51.074;13.764;2023-02-14T01:44:05;102051.00;;;7.54
43802;BMP280;29429;51.074;13.764;2023-02-14T01:46:36;102045.13;;;7.39
43802;BMP280;29429;51.074;13.764;2023-02-14T01:49:14;102041.72;;;7.48
43802;BMP280;29429;51.074;13.764;2023-02-14T01:52:04;102037.81;;;7.52
43802;BMP280;29429;51.074;13.764;2023-02-14T01:54:36;102044.97;;;7.52
43802;BMP280;29429;51.074;13.764;2023-02-14T01:57:11;102043.97;;;7.53
43802;BMP280;29429;51.074;13.764;2023-02-14T01:59:51;102052.09;;;7.51
43802;BMP280;29429;51.074;13.764;2023-02-14T02:02:19;102046.63;;;7.53
43802;BMP280;29429;51.074;13.764;2023-02-14T02:04:54;102054.34;;;7.56
43802;BMP280;29429;51.074;13.764;2023-02-14T02:07:25;102047.84;;;7.60
43802;BMP280;29429;51.074;13.764;2023-02-14T02:10:02;102035.38;;;7.60
43802;BMP280;29429;51.074;13.764;2023-02-14T02:12:31;102033.81;;;7.58
43802;BMP280;29429;51.074;13.764;2023-02-14T02:15:03;102029.50;;;7.57
43802;BMP280;29429;51.074;13.764;2023-02-14T02:17:54;102038.16;;;7.59
43802;BMP280;29429;51.074;13.764;2023-02-14T02:24:16;102037.06;;;7.61
43802;BMP280;29429;51.074;13.764;2023-02-14T02:36:30;102031.41;;;7.55
43802;BMP280;29429;51.074;13.764;2023-02-14T02:47:41;102028.31;;;7.50
43802;BMP280;29429;51.074;13.764;2023-02-14T02:53:35;102032.50;;;7.52
43802;BMP280;29429;51.074;13.764;2023-02-14T02:56:09;102023.97;;;7.49
43802;BMP280;29429;51.074;13.764;2023-02-14T02:59:07;102012.91;;;7.44
43802;BMP280;29429;51.074;13.764;2023-02-14T03:02:27;102012.63;;;7.47
43802;BMP280;29429;51.074;13.764;2023-02-14T03:05:02;102016.53;;;7.43
43802;BMP280;29429;51.074;13.764;2023-02-14T03:07:36;102024.09;;;7.47
43802;BMP280;29429;51.074;13.764;2023-02-14T03:10:10;102030.25;;;7.48
43802;BMP280;29429;51.074;13.764;2023-02-14T03:13:01;102020.72;;;7.45
43802;BMP280;29429;51.074;13.764;2023-02-14T03:15:53;102026.75;;;7.47
43802;BMP280;29429;51.074;13.764;2023-02-14T03:22:00;102022.00;;;7.30
43802;BMP280;29429;51.074;13.764;2023-02-14T03:27:33;102029.84;;;7.31
43802;BMP280;29429;51.074;13.764;2023-02-14T03:32:49;102028.19;;;7.30
43802;BMP280;29429;51.074;13.764;2023-02-14T03:38:51;102022.72;;;7.32
43802;BMP280;29429;51.074;13.764;2023-02-14T03:41:28;102024.28;;;7.34
43802;BMP280;29429;51.074;13.764;2023-02-14T03:44:01;102017.22;;;7.24
43802;BMP280;29429;51.074;13.764;2023-02-14T03:46:46;102012.84;;;7.23
43802;BMP280;29429;51.074;13.764;2023-02-14T03:49:21;102018.75;;;7.26
43802;BMP280;29429;51.074;13.764;2023-02-14T03:51:53;102019.22;;;7.31
43802;BMP280;29429;51.074;13.764;2023-02-14T03:54:24;102010.56;;;7.29
43802;BMP280;29429;51.074;13.764;2023-02-14T03:59:30;102013.91;;;7.31
43802;BMP280;29429;51.074;13.764;2023-02-14T04:02:08;102032.44;;;7.43
43802;BMP280;29429;51.074;13.764;2023-02-14T04:04:44;102028.09;;;7.42
43802;BMP280;29429;51.074;13.764;2023-02-14T04:07:17;102021.16;;;7.29
43802;BMP280;29429;51.074;13.764;2023-02-14T04:09:45;102023.69;;;7.31
43802;BMP280;29429;51.074;13.764;2023-02-14T04:12:14;102037.56;;;7.34
43802;BMP280;29429;51.074;13.764;2023-02-14T04:14:44;102034.91;;;7.34
43802;BMP280;29429;51.074;13.764;2023-02-14T04:17:11;102029.59;;;7.34
43802;BMP280;29429;51.074;13.764;2023-02-14T04:19:56;102021.63;;;7.34
43802;BMP280;29429;51.074;13.764;2023-02-14T04:22:23;102024.03;;;7.38
43802;BMP280;29429;51.074;13.764;2023-02-14T04:24:50;102008.94;;;7.38
43802;BMP280;29429;51.074;13.764;2023-02-14T04:27:17;102012.91;;;7.44
43802;BMP280;29429;51.074;13.764;2023-02-14T04:29:47;102018.06;;;7.45
43802;BMP280;29429;51.074;13.764;2023-02-14T04:32:18;101999.19;;;7.39
43802;BMP280;29429;51.074;13.764;2023-02-14T04:34:47;102009.97;;;7.47
43802;BMP280;29429;51.074;13.764;2023-02-14T04:37:16;101990.22;;;7.40
43802;BMP280;29429;51.074;13.764;2023-02-14T04:39:44;102005.66;;;7.46
43802;BMP280;29429;51.074;13.764;2023-02-14T04:42:11;102002.75;;;7.49
43802;BMP280;29429;51.074;13.764;2023-02-14T04:44:39;102003.69;;;7.48
43802;BMP280;29429;51.074;13.764;2023-02-14T04:47:07;102004.53;;;7.48
43802;BMP280;29429;51.074;13.764;2023-02-14T04:49:35;102009.00;;;7.48
43802;BMP280;29429;51.074;13.764;2023-02-14T04:52:03;101993.59;;;7.42
43802;BMP280;29429;51.074;13.764;2023-02-14T04:54:31;101996.69;;;7.47
43802;BMP280;29429;51.074;13.764;2023-02-14T04:56:59;102003.69;;;7.48
43802;BMP280;29429;51.074;13.764;2023-02-14T04:59:26;101986.34;;;7.44
43802;BMP280;29429;51.074;13.764;2023-02-14T05:01:53;101981.03;;;7.44
43802;BMP280;29429;51.074;13.764;2023-02-14T05:04:20;101986.66;;;7.50
43802;BMP280;29429;51.074;13.764;2023-02-14T05:06:47;101989.72;;;7.46
43802;BMP280;29429;51.074;13.764;2023-02-14T05:09:15;101993.31;;;7.45
43802;BMP280;29429;51.074;13.764;2023-02-14T05:11:42;101982.06;;;7.31
43802;BMP280;29429;51.074;13.764;2023-02-14T05:14:09;101988.16;;;7.22
43802;BMP280;29429;51.074;13.764;2023-02-14T05:16:36;101985.22;;;7.25
43802;BMP280;29429;51.074;13.764;2023-02-14T05:19:04;101986.25;;;7.34
43802;BMP280;29429;51.074;13.764;2023-02-14T05:21:31;101984.97;;;7.28
43802;BMP280;29429;51.074;13.764;2023-02-14T05:23:59;101981.59;;;7.26
43802;BMP280;29429;51.074;13.764;2023-02-14T05:26:27;101984.00;;;7.29
43802;BMP280;29429;51.074;13.764;2023-02-14T05:28:54;101979.53;;;7.30
43802;BMP280;29429;51.074;13.764;2023-02-14T05:31:22;101976.19;;;7.28
43802;BMP280;29429;51.074;13.764;2023-02-14T05:33:49;101975.00;;;7.21
43802;BMP280;29429;51.074;13.764;2023-02-14T05:36:16;101982.84;;;7.22
43802;BMP280;29429;51.074;13.764;2023-02-14T05:38:43;101986.47;;;7.21
43802;BMP280;29429;51.074;13.764;2023-02-14T05:41:10;101979.91;;;7.25
43802;BMP280;29429;51.074;13.764;2023-02-14T05:43:37;101981.09;;;7.32
43802;BMP280;29429;51.074;13.764;2023-02-14T05:46:04;101981.34;;;7.29
43802;BMP280;29429;51.074;13.764;2023-02-14T05:48:32;101977.53;;;7.22
43802;BMP280;29429;51.074;13.764;2023-02-14T05:51:08;101976.75;;;7.31
43802;BMP280;29429;51.074;13.764;2023-02-14T05:53:35;101978.75;;;7.39
43802;BMP280;29429;51.074;13.764;2023-02-14T05:56:04;101982.25;;;7.40
43802;BMP280;29429;51.074;13.764;2023-02-14T05:58:31;101981.31;;;7.41
43802;BMP280;29429;51.074;13.764;2023-02-14T06:00:59;101982.72;;;7.45
43802;BMP280;29429;51.074;13.764;2023-02-14T06:03:26;101982.72;;;7.45
43802;BMP280;29429;51.074;13.764;2023-02-14T06:05:53;101982.00;;;7.43
43802;BMP280;29429;51.074;13.764;2023-02-14T06:08:21;101985.09;;;7.48
43802;BMP280;29429;51.074;13.764;2023-02-14T06:10:48;101979.34;;;7.43
43802;BMP280;29429;51.074;13.764;2023-02-14T06:13:15;101979.50;;;7.41
43802;BMP280;29429;51.074;13.764;2023-02-14T06:15:42;101986.34;;;7.44
43802;BMP280;29429;51.074;13.764;2023-02-14T06:18:09;101980.59;;;7.39
43802;BMP280;29429;51.074;13.764;2023-02-14T06:20:36;101983.97;;;7.41
43802;BMP280;29429;51.074;13.764;2023-02-14T06:23:03;101977.75;;;7.30
43802;BMP280;29429;51.074;13.764;2023-02-14T06:25:30;101976.75;;;7.31
43802;BMP280;29429;51.074;13.764;2023-02-14T06:27:58;101983.25;;;7.39
43802;BMP280;29429;51.074;13.764;2023-02-14T06:30:26;101991.91;;;7.41
43802;BMP280;29429;51.074;13.764;2023-02-14T06:32:57;101984.91;;;7.40
43802;BMP280;29429;51.074;13.764;2023-02-14T06:35:25;101994.94;;;7.36
43802;BMP280;29429;51.074;13.764;2023-02-14T06:37:52;101990.03;;;7.31
43802;BMP280;29429;51.074;13.764;2023-02-14T06:40:19;101990.72;;;7.33
43802;BMP280;29429;51.074;13.764;2023-02-14T06:42:46;101995.94;;;7.35
43802;BMP280;29429;51.074;13.764;2023-02-14T06:45:13;102003.38;;;7.41
43802;BMP280;29429;51.074;13.764;2023-02-14T06:47:40;102008.16;;;7.47
43802;BMP280;29429;51.074;13.764;2023-02-14T06:50:08;102000.09;;;7.49
43802;BMP280;29429;51.074;13.764;2023-02-14T06:52:38;101997.88;;;7.54
43802;BMP280;29429;51.074;13.764;2023-02-14T06:55:05;101995.94;;;7.56
43802;BMP280;29429;51.074;13.764;2023-02-14T06:57:33;101994.97;;;7.57
43802;BMP280;29429;51.074;13.764;2023-02-14T07:00:00;101999.03;;;7.61
43802;BMP280;29429;51.074;13.764;2023-02-14T07:02:28;102000.03;;;7.60
43802;BMP280;29429;51.074;13.764;2023-02-14T07:04:55;102000.41;;;7.55
43802;BMP280;29429;51.074;13.764;2023-02-14T07:07:22;102007.00;;;7.61
43802;BMP280;29429;51.074;13.764;2023-02-14T07:09:48;101998.78;;;7.64
43802;BMP280;29429;51.074;13.764;2023-02-14T07:12:15;102004.53;;;7.69
43802;BMP280;29429;51.074;13.764;2023-02-14T07:14:42;101995.22;;;7.74
43802;BMP280;29429;51.074;13.764;2023-02-14T07:17:09;101989.91;;;7.74
43802;BMP280;29429;51.074;13.764;2023-02-14T07:19:40;101991.03;;;7.81
43802;BMP280;29429;51.074;13.764;2023-02-14T07:22:07;101984.31;;;7.77
43802;BMP280;29429;51.074;13.764;2023-02-14T07:24:36;101989.13;;;7.83
43802;BMP280;29429;51.074;13.764;2023-02-14T07:27:03;101979.31;;;7.84
43802;BMP280;29429;51.074;13.764;2023-02-14T07:29:30;101983.53;;;7.86
43802;BMP280;29429;51.074;13.764;2023-02-14T07:31:57;101992.78;;;7.92
43802;BMP280;29429;51.074;13.764;2023-02-14T07:34:24;101994.75;;;7.90
43802;BMP280;29429;51.074;13.764;2023-02-14T07:36:55;101982.16;;;7.92
43802;BMP280;29429;51.074;13.764;2023-02-14T07:39:22;101985.00;;;8.00
43802;BMP280;29429;51.074;13.764;2023-02-14T07:41:52;101983.50;;;8.07
43802;BMP280;29429;51.074;13.764;2023-02-14T07:44:19;101977.59;;;8.04
43802;BMP280;29429;51.074;13.764;2023-02-14T07:46:46;101981.81;;;8.06
43802;BMP280;29429;51.074;13.764;2023-02-14T07:49:13;101979.16;;;8.06
43802;BMP280;29429;51.074;13.764;2023-02-14T07:51:40;101975.25;;;8.10
43802;BMP280;29429;51.074;13.764;2023-02-14T07:54:10;101974.28;;;8.11
43802;BMP280;29429;51.074;13.764;2023-02-14T07:56:37;101977.81;;;8.21
43802;BMP280;29429;51.074;13.764;2023-02-14T07:59:04;101988.44;;;8.21
43802;BMP280;29429;51.074;13.764;2023-02-14T08:01:39;101982.25;;;8.11
43802;BMP280;29429;51.074;13.764;2023-02-14T08:04:07;101982.44;;;8.19
43802;BMP280;29429;51.074;13.764;2023-02-14T08:06:33;101978.16;;;8.28
43802;BMP280;29429;51.074;13.764;2023-02-14T08:09:00;101980.13;;;8.35
43802;BMP280;29429;51.074;13.764;2023-02-14T08:11:27;101975.09;;;8.42
43802;BMP280;29429;51.074;13.764;2023-02-14T08:14:21;101976.69;;;8.44
43802;BMP280;29429;51.074;13.764;2023-02-14T08:16:49;101972.06;;;8.46
43802;BMP280;29429;51.074;13.764;2023-02-14T08:19:16;101976.81;;;8.52
43802;BMP280;29429;51.074;13.764;2023-02-14T08:21:43;101983.97;;;8.52
43802;BMP280;29429;51.074;13.764;2023-02-14T08:24:10;101983.13;;;8.51
43802;BMP280;29429;51.074;13.764;2023-02-14T08:26:37;101995.03;;;8.57
43802;BMP280;29429;51.074;13.764;2023-02-14T08:29:04;101985.69;;;8.63
43802;BMP280;29429;51.074;13.764;2023-02-14T08:31:31;101989.03;;;8.65
43802;BMP280;29429;51.074;13.764;2023-02-14T08:34:05;101998.41;;;8.59
43802;BMP280;29429;51.074;13.764;2023-02-14T08:36:32;101992.34;;;8.47
43802;BMP280;29429;51.074;13.764;2023-02-14T08:39:00;101996.69;;;8.48
43802;BMP280;29429;51.074;13.764;2023-02-14T08:41:28;101994.19;;;8.47
43802;BMP280;29429;51.074;13.764;2023-02-14T08:43:55;101992.63;;;8.44
43802;BMP280;29429;51.074;13.764;2023-02-14T08:46:22;101992.25;;;8.58
43802;BMP280;29429;51.074;13.764;2023-02-14T08:48:49;101991.28;;;8.69
43802;BMP280;29429;51.074;13.764;2023-02-14T08:51:17;101989.47;;;8.70
43802;BMP280;29429;51.074;13.764;2023-02-14T08:53:44;101986.53;;;8.73
43802;BMP280;29429;51.074;13.764;2023-02-14T08:56:13;101988.19;;;8.64
43802;BMP280;29429;51.074;13.764;2023-02-14T08:58:40;101991.44;;;8.68
43802;BMP280;29429;51.074;13.764;2023-02-14T09:01:14;101989.78;;;8.76
43802;BMP280;29429;51.074;13.764;2023-02-14T09:03:43;101987.13;;;8.86
43802;BMP280;29429;51.074;13.764;2023-02-14T09:06:14;101982.22;;;8.91
43802;BMP280;29429;51.074;13.764;2023-02-14T09:08:43;101989.06;;;8.93
43802;BMP280;29429;51.074;13.764;2023-02-14T09:11:17;101993.69;;;9.01
43802;BMP280;29429;51.074;13.764;2023-02-14T09:13:46;101996.78;;;9.06
43802;BMP280;29429;51.074;13.764;2023-02-14T09:16:16;101999.88;;;9.11
43802;BMP280;29429;51.074;13.764;2023-02-14T09:18:57;101999.75;;;9.12
43802;BMP280;29429;51.074;13.764;2023-02-14T09:21:26;101991.63;;;9.04
43802;BMP280;29429;51.074;13.764;2023-02-14T09:23:54;101997.38;;;9.00
43802;BMP280;29429;51.074;13.764;2023-02-14T09:26:21;102004.63;;;8.98
43802;BMP280;29429;51.074;13.764;2023-02-14T09:28:48;102000.03;;;9.00
43802;BMP280;29429;51.074;13.764;2023-02-14T09:31:22;101997.94;;;9.13
43802;BMP280;29429;51.074;13.764;2023-02-14T09:33:50;101983.63;;;9.14
43802;BMP280;29429;51.074;13.764;2023-02-14T09:36:18;102001.56;;;9.22
43802;BMP280;29429;51.074;13.764;2023-02-14T09:38:46;102004.78;;;9.25
43802;BMP280;29429;51.074;13.764;2023-02-14T09:44:54;102003.25;;;9.23
43802;BMP280;29429;51.074;13.764;2023-02-14T09:48:02;102000.75;;;9.21
43802;BMP280;29429;51.074;13.764;2023-02-14T09:50:55;102002.69;;;9.19
43802;BMP280;29429;51.074;13.764;2023-02-14T09:53:39;102000.16;;;9.17
43802;BMP280;29429;51.074;13.764;2023-02-14T09:56:58;102011.06;;;9.24
43802;BMP280;29429;51.074;13.764;2023-02-14T10:00:16;102013.59;;;9.16
43802;BMP280;29429;51.074;13.764;2023-02-14T10:03:22;102002.94;;;9.16
43802;BMP280;29429;51.074;13.764;2023-02-14T10:11:52;101999.63;;;9.24
43802;BMP280;29429;51.074;13.764;2023-02-14T10:14:24;102004.50;;;9.38
43802;BMP280;29429;51.074;13.764;2023-02-14T10:17:27;101994.84;;;9.37
43802;BMP280;29429;51.074;13.764;2023-02-14T10:20:02;101997.22;;;9.40
43802;BMP280;29429;51.074;13.764;2023-02-14T10:22:50;102004.09;;;9.42
43802;BMP280;29429;51.074;13.764;2023-02-14T10:25:42;101989.50;;;9.37
43802;BMP280;29429;51.074;13.764;2023-02-14T10:28:13;101989.34;;;9.38
43802;BMP280;29429;51.074;13.764;2023-02-14T10:31:40;101990.34;;;9.47
43802;BMP280;29429;51.074;13.764;2023-02-14T10:33:58;101981.09;;;9.41
43802;BMP280;29429;51.074;13.764;2023-02-14T10:36:55;101982.78;;;9.42
43802;BMP280;29429;51.074;13.764;2023-02-14T10:42:41;102000.16;;;9.46
43802;BMP280;29429;51.074;13.764;2023-02-14T10:45:47;101992.44;;;9.43
43802;BMP280;29429;51.074;13.764;2023-02-14T10:48:42;101988.66;;;9.46
43802;BMP280;29429;51.074;13.764;2023-02-14T10:51:20;101987.81;;;9.45
43802;BMP280;29429;51.074;13.764;2023-02-14T11:00:05;101998.06;;;9.50
43802;BMP280;29429;51.074;13.764;2023-02-14T11:02:42;101988.38;;;9.49
43802;BMP280;29429;51.074;13.764;2023-02-14T11:05:43;101989.78;;;9.43
43802;BMP280;29429;51.074;13.764;2023-02-14T11:08:30;101993.13;;;9.45
43802;BMP280;29429;51.074;13.764;2023-02-14T11:13:42;101983.19;;;9.47
43802;BMP280;29429;51.074;13.764;2023-02-14T11:16:18;101972.94;;;9.43
43802;BMP280;29429;51.074;13.764;2023-02-14T11:18:45;101979.41;;;9.40
43802;BMP280;29429;51.074;13.764;2023-02-14T11:21:15;101962.59;;;9.30
43802;BMP280;29429;51.074;13.764;2023-02-14T11:23:50;101971.41;;;9.40
43802;BMP280;29429;51.074;13.764;2023-02-14T11:26:29;101963.53;;;9.48
43802;BMP280;29429;51.074;13.764;2023-02-14T11:29:02;101973.50;;;9.46
43802;BMP280;29429;51.074;13.764;2023-02-14T11:31:34;101968.31;;;9.54
43802;BMP280;29429;51.074;13.764;2023-02-14T11:34:18;101969.25;;;9.72
43802;BMP280;29429;51.074;13.764;2023-02-14T11:36:48;101956.47;;;9.76
43802;BMP280;29429;51.074;13.764;2023-02-14T11:39:32;101966.13;;;9.87
43802;BMP280;29429;51.074;13.764;2023-02-14T11:42:04;101956.03;;;9.80
43802;BMP280;29429;51.074;13.764;2023-02-14T11:44:33;101960.97;;;9.75
43802;BMP280;29429;51.074;13.764;2023-02-14T11:47:29;101957.78;;;9.62
43802;BMP280;29429;51.074;13.764;2023-02-14T11:50:06;101958.47;;;9.64
43802;BMP280;29429;51.074;13.764;2023-02-14T11:52:50;101953.56;;;9.60
43802;BMP280;29429;51.074;13.764;2023-02-14T11:55:32;101961.69;;;9.58
43802;BMP280;29429;51.074;13.764;2023-02-14T11:58:02;101954.13;;;9.63
43802;BMP280;29429;51.074;13.764;2023-02-14T12:00:32;101950.88;;;9.69
43802;BMP280;29429;51.074;13.764;2023-02-14T12:03:03;101944.56;;;9.70
43802;BMP280;29429;51.074;13.764;2023-02-14T12:05:46;101945.13;;;9.64
43802;BMP280;29429;51.074;13.764;2023-02-14T12:08:23;101939.97;;;9.53
43802;BMP280;29429;51.074;13.764;2023-02-14T12:11:10;101940.97;;;9.52
43802;BMP280;29429;51.074;13.764;2023-02-14T12:13:56;101933.09;;;9.60
43802;BMP280;29429;51.074;13.764;2023-02-14T12:16:34;101927.22;;;9.57
43802;BMP280;29429;51.074;13.764;2023-02-14T12:19:12;101922.28;;;9.62
43802;BMP280;29429;51.074;13.764;2023-02-14T12:22:04;101922.16;;;9.63
43802;BMP280;29429;51.074;13.764;2023-02-14T12:24:38;101908.41;;;9.58
43802;BMP280;29429;51.074;13.764;2023-02-14T12:27:41;101922.81;;;9.75
43802;BMP280;29429;51.074;13.764;2023-02-14T12:30:19;101917.34;;;9.76
43802;BMP280;29429;51.074;13.764;2023-02-14T12:32:50;101913.69;;;9.77
43802;BMP280;29429;51.074;13.764;2023-02-14T12:43:55;101900.19;;;9.89
43802;BMP280;29429;51.074;13.764;2023-02-14T12:47:18;101895.81;;;9.88
43802;BMP280;29429;51.074;13.764;2023-02-14T12:55:47;101881.47;;;9.71
43802;BMP280;29429;51.074;13.764;2023-02-14T12:58:39;101885.50;;;9.75
43802;BMP280;29429;51.074;13.764;2023-02-14T13:01:32;101878.00;;;9.88
43802;BMP280;29429;51.074;13.764;2023-02-14T13:10:08;101867.69;;;9.75
43802;BMP280;29429;51.074;13.764;2023-02-14T13:18:29;101869.19;;;9.51
43802;BMP280;29429;51.074;13.764;2023-02-14T13:21:10;101863.03;;;9.41
43802;BMP280;29429;51.074;13.764;2023-02-14T13:23:44;101865.59;;;9.33
43802;BMP280;29429;51.074;13.764;2023-02-14T13:26:36;101853.28;;;9.22
43802;BMP280;29429;51.074;13.764;2023-02-14T13:29:13;101861.72;;;9.17
43802;BMP280;29429;51.074;13.764;2023-02-14T13:31:41;101848.44;;;8.98
43802;BMP280;29429;51.074;13.764;2023-02-14T13:37:02;101844.38;;;8.85
43802;BMP280;29429;51.074;13.764;2023-02-14T13:39:49;101837.66;;;8.71
43802;BMP280;29429;51.074;13.764;2023-02-14T13:42:54;101852.94;;;8.69
43802;BMP280;29429;51.074;13.764;2023-02-14T13:48:15;101837.25;;;8.76
43802;BMP280;29429;51.074;13.764;2023-02-14T13:53:43;101835.69;;;9.02
43802;BMP280;29429;51.074;13.764;2023-02-14T13:58:52;101842.91;;;9.19
43802;BMP280;29429;51.074;13.764;2023-02-14T14:01:44;101837.31;;;9.32
43802;BMP280;29429;51.074;13.764;2023-02-14T14:20:46;101831.31;;;9.57
43802;BMP280;29429;51.074;13.764;2023-02-14T14:23:34;101817.88;;;9.49
43802;BMP280;29429;51.074;13.764;2023-02-14T14:26:49;101822.34;;;9.48
43802;BMP280;29429;51.074;13.764;2023-02-14T14:29:30;101815.38;;;9.47
43802;BMP280;29429;51.074;13.764;2023-02-14T14:31:57;101816.19;;;9.48
43802;BMP280;29429;51.074;13.764;2023-02-14T14:34:27;101816.19;;;9.48
43802;BMP280;29429;51.074;13.764;2023-02-14T14:37:15;101801.84;;;9.31
43802;BMP280;29429;51.074;13.764;2023-02-14T14:39:51;101813.47;;;9.30
43802;BMP280;29429;51.074;13.764;2023-02-14T14:42:20;101814.47;;;9.29
43802;BMP280;29429;51.074;13.764;2023-02-14T14:44:56;101811.81;;;9.19
43802;BMP280;29429;51.074;13.764;2023-02-14T14:47:44;101794.47;;;9.06
43802;BMP280;29429;51.074;13.764;2023-02-14T14:50:24;101795.06;;;9.00
43802;BMP280;29429;51.074;13.764;2023-02-14T14:52:55;101785.69;;;8.96
43802;BMP280;29429;51.074;13.764;2023-02-14T14:55:27;101777.13;;;9.02
43802;BMP280;29429;51.074;13.764;2023-02-14T14:57:58;101785.63;;;9.05
43802;BMP280;29429;51.074;13.764;2023-02-14T15:00:33;101785.41;;;8.99
43802;BMP280;29429;51.074;13.764;2023-02-14T15:03:13;101774.06;;;8.87
43802;BMP280;29429;51.074;13.764;2023-02-14T15:05:44;101769.59;;;8.88
43802;BMP280;29429;51.074;13.764;2023-02-14T15:08:32;101770.47;;;8.79
43802;BMP280;29429;51.074;13.764;2023-02-14T15:11:13;101771.03;;;8.63
43802;BMP280;29429;51.074;13.764;2023-02-14T15:14:02;101768.25;;;8.45
43802;BMP280;29429;51.074;13.764;2023-02-14T15:16:49;101766.88;;;8.41
43802;BMP280;29429;51.074;13.764;2023-02-14T15:19:36;101770.78;;;8.28
43802;BMP280;29429;51.074;13.764;2023-02-14T15:22:25;101769.50;;;8.22
43802;BMP280;29429;51.074;13.764;2023-02-14T15:24:57;101758.41;;;8.08
43802;BMP280;29429;51.074;13.764;2023-02-14T15:27:26;101758.00;;;8.03
43802;BMP280;29429;51.074;13.764;2023-02-14T15:30:06;101746.66;;;7.91
43802;BMP280;29429;51.074;13.764;2023-02-14T15:32:37;101749.44;;;7.80
43802;BMP280;29429;51.074;13.764;2023-02-14T15:35:05;101750.25;;;7.71
43802;BMP280;29429;51.074;13.764;2023-02-14T15:37:33;101743.81;;;7.64
43802;BMP280;29429;51.074;13.764;2023-02-14T15:40:01;101741.69;;;7.58
43802;BMP280;29429;51.074;13.764;2023-02-14T15:42:32;101744.19;;;7.50
43802;BMP280;29429;51.074;13.764;2023-02-14T15:45:28;101750.75;;;7.46
43802;BMP280;29429;51.074;13.764;2023-02-14T15:48:04;101747.94;;;7.38
43802;BMP280;29429;51.074;13.764;2023-02-14T15:50:49;101740.50;;;7.31
43802;BMP280;29429;51.074;13.764;2023-02-14T15:53:42;101752.66;;;7.24
43802;BMP280;29429;51.074;13.764;2023-02-14T15:56:31;101740.31;;;7.14
43802;BMP280;29429;51.074;13.764;2023-02-14T15:59:10;101747.25;;;7.05
43802;BMP280;29429;51.074;13.764;2023-02-14T16:01:38;101739.94;;;6.98
43802;BMP280;29429;51.074;13.764;2023-02-14T16:04:06;101737.25;;;6.88
43802;BMP280;29429;51.074;13.764;2023-02-14T16:06:43;101741.28;;;6.83
43802;BMP280;29429;51.074;13.764;2023-02-14T16:09:27;101743.84;;;6.73
43802;BMP280;29429;51.074;13.764;2023-02-14T16:11:54;101742.25;;;6.61
43802;BMP280;29429;51.074;13.764;2023-02-14T16:14:35;101742.75;;;6.55
43802;BMP280;29429;51.074;13.764;2023-02-14T16:17:11;101753.06;;;6.48
43802;BMP280;29429;51.074;13.764;2023-02-14T16:19:45;101744.47;;;6.35
43802;BMP280;29429;51.074;13.764;2023-02-14T16:22:27;101748.47;;;6.30
43802;BMP280;29429;51.074;13.764;2023-02-14T16:24:58;101733.59;;;6.06
43802;BMP280;29429;51.074;13.764;2023-02-14T16:27:27;101747.22;;;6.02
43802;BMP280;29429;51.074;13.764;2023-02-14T16:29:54;101741.72;;;5.94
43802;BMP280;29429;51.074;13.764;2023-02-14T16:32:22;101746.44;;;5.90